Data for 03/22/2013

Time Sea-Level Adjusted Pressure Absolute Pressure Temperature Relative Humidity Dew Point   
(mb) (inHg) (mb) (inHg) (C) (F) (%) (C) (F)
15:45 1012 29.88 841 24.83 0.6 33 42 -10.9 12.3
15:50 1012 29.88 841 24.83 0 32.1 44 -10.7 12.7
15:55 1012 29.88 841 24.83 -0.6 31 48 -10.4 13.3
16:00 1012 29.88 841 24.83 -0.5 31.1 44 -11.4 11.4
16:05 1012 29.88 841 24.83 -0.3 31.5 43 -11.4 11.5
16:10 1012 29.88 841 24.83 0.2 32.4 39 -12.1 10.3
16:15 1012 29.88 841 24.83 0.3 32.6 35 -13.6 7.6
16:20 1012 29.88 841 24.83 0.5 32.9 35 -13.2 8.2
16:25 1012 29.88 841 24.83 0.7 33.2 37 -12.3 9.9
16:30 1012 29.88 841 24.83 0.5 32.8 36 -12.9 8.8
16:35 1012 29.88 841 24.83 0.2 32.4 39 -12.1 10.2
16:40 1012 29.88 841 24.83 -0 31.9 39 -12.5 9.5
16:45 1012 29.88 841 24.83 -0 32 36 -13.3 8
16:50 1012 29.88 841 24.83 0.4 32.7 35 -13.5 7.7
16:55 1012 29.88 841 24.83 0.6 33 32 -14.3 6.3
17:00 1012 29.88 841 24.83 0.6 33 32 -14.3 6.3
00:05 1013 29.91 843 24.89 -6.4 20.5 52 -14.8 5.4
00:10 1013 29.91 843 24.89 -6.3 20.6 52 -14.6 5.7
00:15 1014 29.94 843 24.89 -6.3 20.6 52 -14.8 5.4
00:20 1014 29.94 843 24.89 -6.7 20 53 -14.7 5.6
00:25 1014 29.94 843 24.89 -7 19.3 58 -14 6.9
00:30 1014 29.94 843 24.89 -7.8 18.1 58 -14.6 5.7
00:35 1014 29.94 843 24.89 -7.4 18.8 56 -14.6 5.6
00:40 1014 29.94 843 24.89 -7.3 18.9 57 -14.3 6.2
00:45 1014 29.94 843 24.89 -7.4 18.8 58 -14.4 6.1
00:50 1014 29.94 843 24.89 -7.4 18.7 57 -14.4 6
00:55 1013 29.91 843 24.89 -7.4 18.8 54 -15.1 4.9
01:00 1013 29.91 843 24.89 -7.1 19.2 54 -14.9 5.2
01:05 1013 29.91 843 24.89 -7.2 19 55 -14.8 5.4
01:10 1013 29.91 843 24.89 -7.4 18.6 58 -14.3 6.2
01:15 1013 29.91 843 24.89 -7.7 18.1 60 -14.3 6.3
01:20 1013 29.91 843 24.89 -7.6 18.4 57 -14.7 5.6
01:25 1013 29.91 843 24.89 -7.4 18.6 60 -14 6.8
01:30 1013 29.91 843 24.89 -8.1 17.4 63 -14.1 6.7
01:35 1013 29.91 843 24.89 -8.6 16.5 65 -14.1 6.6
01:40 1013 29.91 843 24.89 -8.9 15.9 66 -14.2 6.5
01:45 1013 29.91 843 24.89 -8.8 16.2 65 -14.2 6.4
01:50 1013 29.91 843 24.89 -8.8 16.3 65 -14.1 6.6
01:55 1013 29.91 843 24.89 -8.9 15.9 67 -14 6.7
02:00 1013 29.91 843 24.89 -9.2 15.4 68 -14.1 6.6
02:05 1013 29.91 843 24.89 -9.5 14.9 69 -14.2 6.5
02:10 1013 29.91 843 24.89 -9.5 14.8 69 -14.1 6.5
02:15 1013 29.91 843 24.89 -9.4 15.1 69 -14.1 6.7
02:20 1013 29.91 843 24.89 -9.3 15.4 69 -14 6.8
02:25 1013 29.91 843 24.89 -9.2 15.4 69 -13.9 6.9
02:30 1013 29.91 843 24.89 -9.1 15.7 68 -13.9 6.9
02:35 1013 29.91 842 24.86 -8.8 16.2 68 -13.7 7.3
02:40 1013 29.91 842 24.86 -8.6 16.5 67 -13.7 7.4
02:45 1013 29.91 842 24.86 -8.4 17 66 -13.6 7.6
02:50 1013 29.91 842 24.86 -8 17.6 65 -13.4 7.9
02:55 1013 29.91 842 24.86 -7.9 17.8 65 -13.4 8
03:00 1013 29.91 842 24.86 -7.8 18.1 64 -13.4 7.9
03:05 1013 29.91 842 24.86 -7.8 17.9 65 -13.3 8.1
03:10 1013 29.91 842 24.86 -8 17.7 66 -13.2 8.3
03:15 1013 29.91 842 24.86 -8 17.7 65 -13.4 7.9
03:20 1013 29.91 842 24.86 -7.8 17.9 66 -13.2 8.3
03:25 1013 29.91 842 24.86 -7.7 18.1 64 -13.4 7.8
03:30 1013 29.91 842 24.86 -7.7 18.2 64 -13.3 8.1
03:35 1013 29.91 842 24.86 -7.7 18.2 65 -13.2 8.2
03:40 1013 29.91 842 24.86 -7.7 18.1 65 -13.3 8.1
03:45 1013 29.91 842 24.86 -7.7 18.1 65 -13.2 8.3
03:50 1013 29.91 842 24.86 -7.6 18.4 65 -13.1 8.4
03:55 1013 29.91 842 24.86 -7.5 18.6 65 -13 8.6
04:00 1013 29.91 842 24.86 -7.4 18.7 65 -12.9 8.8
04:05 1013 29.91 842 24.86 -7.3 18.9 65 -12.8 8.9
04:10 1013 29.91 842 24.86 -7.1 19.2 64 -12.9 8.9
04:15 1013 29.91 842 24.86 -7 19.4 64 -12.7 9.1
04:20 1013 29.91 842 24.86 -6.9 19.5 63 -12.8 9
04:25 1013 29.91 842 24.86 -6.8 19.7 63 -12.7 9.2
04:30 1013 29.91 842 24.86 -7 19.5 64 -12.6 9.3
04:35 1013 29.91 842 24.86 -7 19.4 65 -12.6 9.3
04:40 1013 29.91 842 24.86 -6.9 19.5 64 -12.6 9.2
04:45 1013 29.91 842 24.86 -6.9 19.6 63 -12.9 8.8
04:50 1013 29.91 842 24.86 -6.7 20 62 -12.8 8.9
04:55 1013 29.91 842 24.86 -6.8 19.8 62 -12.8 8.9
05:00 1013 29.91 842 24.86 -7.1 19.2 64 -12.7 9.1
05:05 1013 29.91 842 24.86 -7.4 18.6 64 -13.1 8.4
05:10 1013 29.91 842 24.86 -7.6 18.4 60 -14 6.7
05:15 1013 29.91 842 24.86 -7.6 18.2 59 -14.4 6.2
05:20 1013 29.91 842 24.86 -7.7 18.2 59 -14.4 6.1
05:25 1013 29.91 842 24.86 -7.7 18.2 58 -14.6 5.7
05:30 1013 29.91 842 24.86 -7.2 19 56 -14.6 5.7
05:35 1013 29.91 842 24.86 -7.3 19 56 -14.5 5.9
05:40 1013 29.91 842 24.86 -7.2 19.1 56 -14.6 5.7
05:45 1013 29.91 842 24.86 -7.1 19.3 56 -14.4 6.1
05:50 1013 29.91 842 24.86 -7.1 19.2 57 -14.4 6.2
05:55 1013 29.91 842 24.86 -7.2 19.1 58 -14.1 6.6
06:00 1013 29.91 842 24.86 -7.2 19.1 57 -14.3 6.2
06:05 1013 29.91 842 24.86 -7 19.3 57 -14.2 6.4
06:10 1013 29.91 842 24.86 -7 19.5 58 -14 6.8
06:15 1013 29.91 842 24.86 -7.1 19.3 60 -13.7 7.4
06:20 1013 29.91 842 24.86 -7.3 19 60 -13.7 7.3
06:25 1013 29.91 842 24.86 -7.3 18.9 59 -14 6.9
06:30 1013 29.91 842 24.86 -7.2 19 59 -13.9 7
06:35 1013 29.91 842 24.86 -7.4 18.7 61 -13.7 7.4
06:40 1013 29.91 842 24.86 -7.6 18.4 62 -13.7 7.3
06:45 1013 29.91 842 24.86 -7.5 18.6 61 -13.7 7.4
06:50 1013 29.91 842 24.86 -7.2 19 61 -13.6 7.5
06:55 1013 29.91 842 24.86 -7.1 19.3 60 -13.6 7.5
07:00 1013 29.91 842 24.86 -6.9 19.6 59 -13.6 7.6
07:05 1013 29.91 843 24.89 -6.9 19.6 59 -13.7 7.3
07:10 1013 29.91 843 24.89 -6.8 19.7 59 -13.5 7.8
07:15 1014 29.94 843 24.89 -6.6 20.1 57 -13.7 7.3
07:20 1014 29.94 843 24.89 -6.3 20.6 56 -13.6 7.4
07:25 1014 29.94 843 24.89 -6.1 21 56 -13.4 7.8
07:30 1014 29.94 843 24.89 -6 21.2 57 -13.2 8.2
07:35 1014 29.94 843 24.89 -6.1 21.1 57 -13.2 8.2
07:40 1014 29.94 843 24.89 -6.1 21 58 -13.2 8.3
07:45 1014 29.94 843 24.89 -6.1 21 58 -13.1 8.4
07:50 1014 29.94 843 24.89 -6.1 21 57 -13.3 8.1
07:55 1014 29.94 843 24.89 -6 21.3 57 -13.1 8.4
08:00 1014 29.94 843 24.89 -5.7 21.8 57 -12.9 8.7
08:05 1014 29.94 843 24.89 -5.3 22.4 56 -12.8 9
08:10 1014 29.94 843 24.89 -5.2 22.6 55 -12.9 8.9
08:15 1014 29.94 843 24.89 -5.2 22.6 55 -12.9 8.8
08:20 1014 29.94 843 24.89 -5.2 22.7 55 -12.8 8.9
08:25 1014 29.94 843 24.89 -4.9 23.1 52 -13.3 8.1
08:30 1014 29.94 843 24.89 -4.9 23.2 54 -12.8 8.9
08:35 1014 29.94 843 24.89 -4.8 23.3 53 -13 8.6
08:40 1014 29.94 843 24.89 -4.3 24.2 51 -12.9 8.8
08:45 1014 29.94 843 24.89 -4 24.8 50 -13 8.5
08:50 1014 29.94 843 24.89 -3.7 25.3 50 -12.8 9
08:55 1014 29.94 843 24.89 -3.7 25.3 50 -12.6 9.3
09:00 1014 29.94 843 24.89 -3.9 24.9 50 -13 8.6
09:05 1014 29.94 843 24.89 -3.9 24.9 47 -13.7 7.3
09:10 1014 29.94 843 24.89 -4.3 24.3 50 -13.2 8.2
09:15 1014 29.94 843 24.89 -4 24.8 49 -13.2 8.3
09:20 1014 29.94 843 24.89 -4 24.7 48 -13.4 7.8
09:25 1014 29.94 843 24.89 -3.6 25.5 47 -13.3 8.1
09:30 1014 29.94 844 24.92 -3.6 25.5 49 -12.9 8.8
09:35 1014 29.94 843 24.89 -3.8 25.1 49 -13 8.6
09:40 1014 29.94 843 24.89 -3.9 24.9 48 -13.4 7.8
09:45 1014 29.94 843 24.89 -3.7 25.4 50 -12.7 9.2
09:50 1014 29.94 844 24.92 -3.3 26 49 -12.5 9.5
09:55 1014 29.94 844 24.92 -2.7 27.1 50 -11.8 10.7
10:00 1014 29.94 844 24.92 -2.5 27.5 49 -11.7 10.9
10:05 1014 29.94 844 24.92 -2 28.4 50 -11.2 11.9
10:10 1014 29.94 844 24.92 -2 28.3 51 -10.8 12.6
10:15 1014 29.94 844 24.92 -2.2 28 54 -10.3 13.4
10:20 1014 29.94 844 24.92 -2.3 27.8 57 -9.7 14.5
10:25 1014 29.94 844 24.92 -3.2 26.3 58 -10.3 13.4
10:30 1014 29.94 844 24.92 -2.8 27 56 -10.3 13.4
10:35 1014 29.94 844 24.92 -3.2 26.3 57 -10.5 13.1
10:40 1014 29.94 844 24.92 -2.6 27.3 54 -10.6 12.9
10:45 1014 29.94 844 24.92 -3.1 26.5 56 -10.6 13
10:50 1014 29.94 844 24.92 -3.7 25.3 58 -10.7 12.7
10:55 1014 29.94 844 24.92 -3.2 26.2 55 -11.1 12.1
11:00 1014 29.94 844 24.92 -3.5 25.8 60 -10.3 13.5
11:05 1014 29.94 844 24.92 -3.3 26 54 -11.3 11.7
11:10 1014 29.94 844 24.92 -3.5 25.7 57 -10.7 12.7
11:15 1014 29.94 844 24.92 -3.3 26.1 55 -11.1 12.1
11:20 1014 29.94 844 24.92 -3.4 26 57 -10.8 12.6
11:25 1014 29.94 844 24.92 -3 26.6 51 -11.9 10.6
11:30 1014 29.94 844 24.92 -3 26.7 54 -11 12.2
11:35 1014 29.94 844 24.92 -2.9 26.7 54 -11.1 12
11:40 1014 29.94 844 24.92 -3.7 25.4 56 -11.3 11.7
11:45 1014 29.94 844 24.92 -3.7 25.4 56 -11.3 11.7
11:50 1014 29.94 844 24.92 -3.8 25.1 57 -11.1 12.1
11:55 1014 29.94 844 24.92 -3.9 24.9 60 -10.5 13.1
12:00 1014 29.94 844 24.92 -3.2 26.2 57 -10.5 13.1
12:05 1014 29.94 844 24.92 -2.6 27.4 52 -11.2 11.9
12:10 1014 29.94 844 24.92 -2.6 27.2 52 -11.3 11.7
12:15 1014 29.94 844 24.92 -3.1 26.4 50 -12.1 10.3
12:20 1014 29.94 844 24.92 -3 26.7 51 -11.6 11.1
12:25 1014 29.94 844 24.92 -1.8 28.7 46 -12 10.5
12:30 1014 29.94 844 24.92 -2.6 27.3 53 -10.9 12.4
12:35 1014 29.94 844 24.92 -2.2 28.1 59 -9.2 15.4
12:40 1014 29.94 844 24.92 -1.1 30.1 51 -10 13.9
12:45 1014 29.94 844 24.92 -1.6 29.2 53 -10 13.9
12:50 1014 29.94 844 24.92 -1.9 28.6 60 -8.6 16.5
12:55 1014 29.94 844 24.92 -2.2 28 59 -9.1 15.6
13:00 1014 29.94 844 24.92 -2.7 27.1 60 -9.5 14.8
13:05 1014 29.94 844 24.92 -2.5 27.6 61 -9.1 15.7
13:10 1014 29.94 844 24.92 -2.3 27.9 58 -9.5 14.9
13:15 1014 29.94 844 24.92 -2.1 28.2 57 -9.6 14.7
13:20 1014 29.94 844 24.92 -1.9 28.7 54 -10 14
13:25 1014 29.94 844 24.92 -0.5 31.1 50 -9.7 14.5
13:30 1015 29.97 844 24.92 -1.6 29.1 71 -6.3 20.7
13:35 1015 29.97 844 24.92 -2.3 27.9 71 -6.9 19.6
13:40 1015 29.97 844 24.92 -2.2 28 67 -7.6 18.4
13:45 1014 29.94 844 24.92 -2.3 27.9 62 -8.6 16.4
13:50 1014 29.94 844 24.92 -1.2 29.8 61 -7.8 17.9
13:55 1014 29.94 844 24.92 -0.9 30.3 49 -10.3 13.4
14:00 1014 29.94 844 24.92 -1.1 30 51 -10 14
14:05 1014 29.94 844 24.92 -1.1 30.1 48 -10.7 12.7
14:10 1014 29.94 844 24.92 -1.2 29.8 48 -10.9 12.4
14:15 1014 29.94 844 24.92 -0.2 31.7 41 -11.8 10.7
14:20 1014 29.94 844 24.92 -0.6 30.9 51 -9.5 15
14:25 1014 29.94 844 24.92 -1.4 29.5 53 -9.7 14.5
14:30 1014 29.94 844 24.92 -1.8 28.7 55 -9.8 14.3
14:35 1014 29.94 844 24.92 -1.8 28.8 55 -9.7 14.6
14:40 1014 29.94 844 24.92 -2.1 28.2 55 -9.9 14.1
14:45 1014 29.94 844 24.92 -2.2 28 56 -9.8 14.4
14:50 1014 29.94 844 24.92 -1.9 28.6 55 -9.7 14.5
14:55 1014 29.94 844 24.92 -1.8 28.8 56 -9.5 15
15:00 1014 29.94 844 24.92 -2.6 27.4 61 -9.2 15.5
15:05 1015 29.97 844 24.92 -1.9 28.5 58 -9.2 15.4
15:10 1015 29.97 844 24.92 -1.7 28.9 59 -8.7 16.3
15:15 1015 29.97 844 24.92 -3.5 25.8 69 -8.3 17.1
15:20 1015 29.97 844 24.92 -4.2 24.5 71 -8.6 16.5
15:25 1015 29.97 844 24.92 -4.6 23.8 76 -8.1 17.4
15:30 1015 29.97 844 24.92 -3.9 25 68 -9 15.8
15:35 1015 29.97 844 24.92 -3.7 25.3 67 -9.1 15.7
15:40 1015 29.97 844 24.92 -3.5 25.6 70 -8.2 17.2
15:45 1015 29.97 844 24.92 -3.5 25.7 70 -8.2 17.2
15:50 1015 29.97 844 24.92 -3.5 25.7 70 -8.2 17.3
15:55 1015 29.97 844 24.92 -3.6 25.5 69 -8.5 16.7
16:00 1015 29.97 844 24.92 -3.7 25.4 67 -9 15.8
16:05 1015 29.97 844 24.92 -3.9 25 66 -9.3 15.2
16:10 1015 29.97 844 24.92 -4.1 24.5 65 -9.8 14.4
16:15 1015 29.97 844 24.92 -4.1 24.5 65 -9.8 14.4
16:20 1015 29.97 844 24.92 -4 24.8 66 -9.4 15.1
16:25 1015 29.97 844 24.92 -3.7 25.3 61 -10.2 13.6
16:30 1015 29.97 844 24.92 -4 24.9 63 -10 13.9
16:35 1015 29.97 844 24.92 -3.7 25.4 62 -10 14
16:40 1015 29.97 845 24.95 -3.5 25.7 64 -9.4 15.1
16:45 1015 29.97 845 24.95 -3.5 25.8 63 -9.6 14.7
16:50 1015 29.97 845 24.95 -3.5 25.6 64 -9.5 14.9
16:55 1015 29.97 845 24.95 -3.4 25.8 58 -10.5 13.1
17:00 1015 29.97 845 24.95 -3.5 25.7 60 -10.1 13.8
00:05 1019 30.09 848 25.04 -7.4 18.6 79 -10.4 13.3
00:10 1019 30.09 848 25.04 -7.6 18.4 81 -10.3 13.5
00:15 1019 30.09 848 25.04 -7.7 18.1 84 -10 14
00:20 1019 30.09 848 25.04 -7.8 17.9 83 -10.3 13.5
00:25 1019 30.09 849 25.07 -7.9 17.8 81 -10.5 13.1
00:30 1019 30.09 849 25.07 -7.9 17.7 82 -10.4 13.2
00:35 1019 30.09 849 25.07 -8 17.5 83 -10.5 13.2
00:40 1019 30.09 849 25.07 -8.1 17.4 82 -10.6 13
00:45 1019 30.09 849 25.07 -8 17.7 81 -10.7 12.7
00:50 1019 30.09 849 25.07 -7.9 17.8 81 -10.6 13
00:55 1019 30.09 849 25.07 -7.9 17.9 77 -11.2 11.9
01:00 1020 30.12 849 25.07 -8 17.7 75 -11.6 11.1
01:05 1020 30.12 849 25.07 -8 17.6 77 -11.4 11.5
01:10 1020 30.12 849 25.07 -7.9 17.8 81 -10.5 13
01:15 1020 30.12 849 25.07 -7.9 17.8 80 -10.8 12.5
01:20 1020 30.12 849 25.07 -8 17.5 77 -11.4 11.4
01:25 1020 30.12 849 25.07 -8.1 17.3 74 -11.9 10.5
01:30 1020 30.12 849 25.07 -8.3 17.1 74 -12.1 10.2
01:35 1020 30.12 849 25.07 -8.3 17 75 -12.1 10.3
01:40 1020 30.12 849 25.07 -8.3 17 74 -12.1 10.1
01:45 1020 30.12 849 25.07 -8.3 17.2 74 -12 10.4
01:50 1020 30.12 849 25.07 -8.3 17.1 71 -12.6 9.2
01:55 1020 30.12 849 25.07 -8.3 17 72 -12.6 9.3
02:00 1020 30.12 849 25.07 -8.3 17.1 70 -12.8 8.9
02:05 1020 30.12 849 25.07 -8.4 16.9 70 -12.8 8.9
02:10 1020 30.12 849 25.07 -8.4 16.8 72 -12.6 9.3
02:15 1020 30.12 849 25.07 -8.5 16.8 71 -12.8 8.9
02:20 1020 30.12 849 25.07 -8.5 16.8 70 -13 8.6
02:25 1020 30.12 849 25.07 -8.4 16.8 71 -12.9 8.8
02:30 1020 30.12 849 25.07 -8.4 16.8 70 -13 8.6
02:35 1020 30.12 849 25.07 -8.5 16.7 70 -13 8.6
02:40 1020 30.12 849 25.07 -8.6 16.6 71 -12.9 8.8
02:45 1020 30.12 849 25.07 -8.6 16.5 71 -13 8.7
02:50 1020 30.12 849 25.07 -8.7 16.4 71 -13.1 8.4
02:55 1020 30.12 849 25.07 -8.7 16.3 72 -13 8.6
03:00 1020 30.12 849 25.07 -8.8 16.2 72 -13 8.6
03:05 1020 30.12 849 25.07 -8.8 16.1 71 -13.2 8.3
03:10 1020 30.12 849 25.07 -9 15.8 71 -13.4 7.9
03:15 1020 30.12 849 25.07 -9.1 15.7 71 -13.4 7.9
03:20 1020 30.12 849 25.07 -9.1 15.6 71 -13.4 7.8
03:25 1020 30.12 849 25.07 -9.2 15.4 71 -13.5 7.7
03:30 1020 30.12 849 25.07 -9.3 15.2 71 -13.7 7.3
03:35 1020 30.12 849 25.07 -9.4 15.2 71 -13.6 7.4
03:40 1020 30.12 849 25.07 -9.5 15 72 -13.7 7.4
03:45 1020 30.12 849 25.07 -9.4 15 72 -13.7 7.4
03:50 1020 30.12 850 25.1 -9.5 14.9 72 -13.7 7.3
03:55 1020 30.12 850 25.1 -9.5 14.8 72 -13.7 7.4
04:00 1020 30.12 850 25.1 -9.6 14.8 72 -13.7 7.4
04:05 1020 30.12 850 25.1 -9.6 14.8 72 -13.7 7.3
04:10 1020 30.12 850 25.1 -9.6 14.8 72 -13.8 7.2
04:15 1020 30.12 850 25.1 -9.6 14.8 72 -13.7 7.3
04:20 1020 30.12 850 25.1 -9.5 14.9 71 -13.8 7.1
04:25 1021 30.15 850 25.1 -9.5 14.9 71 -13.9 7
04:30 1021 30.15 850 25.1 -9.5 14.8 71 -13.9 7
04:35 1021 30.15 850 25.1 -9.7 14.6 71 -13.9 6.9
04:40 1021 30.15 850 25.1 -9.7 14.5 71 -14.1 6.7
04:45 1021 30.15 850 25.1 -9.8 14.4 70 -14.2 6.4
04:50 1021 30.15 850 25.1 -9.8 14.3 69 -14.4 6.1
04:55 1021 30.15 850 25.1 -9.9 14.3 69 -14.5 5.9
05:00 1021 30.15 850 25.1 -10 14 70 -14.4 6.1
05:05 1021 30.15 850 25.1 -10 14 70 -14.5 5.9
05:10 1021 30.15 850 25.1 -10.1 13.9 70 -14.6 5.8
05:15 1021 30.15 850 25.1 -10.2 13.7 70 -14.6 5.7
05:20 1021 30.15 850 25.1 -10.2 13.7 70 -14.7 5.6
05:25 1021 30.15 850 25.1 -10.1 13.7 70 -14.7 5.6
05:30 1021 30.15 850 25.1 -10.2 13.6 71 -14.5 5.8
05:35 1021 30.15 850 25.1 -10.6 13 72 -14.7 5.6
05:40 1021 30.15 851 25.13 -10.8 12.7 74 -14.6 5.7
05:45 1021 30.15 851 25.13 -10.6 12.8 72 -14.7 5.5
05:50 1021 30.15 851 25.13 -10.4 13.2 72 -14.6 5.7
05:55 1021 30.15 851 25.13 -10.4 13.3 72 -14.6 5.8
06:00 1022 30.18 851 25.13 -10.3 13.4 71 -14.7 5.6
06:05 1022 30.18 851 25.13 -10.1 13.7 70 -14.7 5.6
06:10 1022 30.18 851 25.13 -10 14.1 69 -14.7 5.6
06:15 1022 30.18 851 25.13 -9.9 14.2 69 -14.6 5.7
06:20 1022 30.18 851 25.13 -9.8 14.4 69 -14.4 6
06:25 1022 30.18 851 25.13 -9.7 14.6 67 -14.7 5.6
06:30 1022 30.18 851 25.13 -9.6 14.8 66 -14.8 5.4
06:35 1022 30.18 851 25.13 -9.5 14.9 66 -14.8 5.4
06:40 1022 30.18 851 25.13 -9.5 14.9 65 -14.9 5.2
06:45 1022 30.18 851 25.13 -9.6 14.7 67 -14.6 5.7
06:50 1022 30.18 851 25.13 -9.8 14.3 70 -14.3 6.3
06:55 1022 30.18 851 25.13 -9.9 14.2 72 -14.1 6.6
07:00 1022 30.18 851 25.13 -9.7 14.5 72 -13.9 7
07:05 1022 30.18 851 25.13 -9.8 14.5 72 -13.9 7.1
07:10 1022 30.18 851 25.13 -9.8 14.3 72 -14 6.8
07:15 1022 30.18 851 25.13 -9.9 14.2 72 -14 6.8
07:20 1022 30.18 851 25.13 -9.9 14.2 73 -13.9 7
07:25 1022 30.18 851 25.13 -9.6 14.8 70 -14.1 6.6
07:30 1022 30.18 851 25.13 -9.3 15.2 69 -14 6.8
07:35 1022 30.18 851 25.13 -9.4 15.1 68 -14.2 6.5
07:40 1022 30.18 851 25.13 -9.4 15.1 69 -14.1 6.7
07:45 1022 30.18 852 25.16 -9.2 15.4 69 -14 6.9
07:50 1022 30.18 852 25.16 -8.9 16 68 -13.8 7.1
07:55 1022 30.18 852 25.16 -8.9 16 67 -13.9 7
08:00 1023 30.21 852 25.16 -8.5 16.7 66 -13.8 7.2
08:05 1022 30.18 852 25.16 -8 17.5 64 -13.7 7.4
08:10 1022 30.18 852 25.16 -8.5 16.7 66 -13.8 7.2
08:15 1022 30.18 852 25.16 -8.4 16.8 66 -13.6 7.5
08:20 1022 30.18 852 25.16 -8.1 17.4 63 -13.9 7
08:25 1022 30.18 852 25.16 -8.4 16.9 64 -14 6.7
08:30 1022 30.18 852 25.16 -8.2 17.2 62 -14.3 6.3
08:35 1023 30.21 852 25.16 -7.1 19.2 57 -14.3 6.2
08:40 1023 30.21 852 25.16 -6.8 19.7 57 -14 6.9
08:45 1023 30.21 852 25.16 -6.4 20.5 56 -13.8 7.1
08:50 1023 30.21 852 25.16 -6.1 21 52 -14.3 6.2
08:55 1023 30.21 852 25.16 -6.6 20 55 -14.2 6.4
09:00 1023 30.21 852 25.16 -6.8 19.7 55 -14.4 6.1
09:05 1023 30.21 852 25.16 -7.4 18.6 62 -13.5 7.7
09:10 1023 30.21 852 25.16 -7.8 18 60 -14.2 6.5
09:15 1023 30.21 852 25.16 -7.4 18.7 57 -14.6 5.7
09:20 1023 30.21 852 25.16 -7.8 18 60 -14.3 6.2
09:25 1022 30.18 852 25.16 -7 19.5 55 -14.5 5.9
09:30 1022 30.18 852 25.16 -6.5 20.2 56 -14 6.9
09:35 1022 30.18 852 25.16 -6.9 19.5 56 -14.2 6.4
09:40 1022 30.18 852 25.16 -7.5 18.5 57 -14.5 5.9
09:45 1023 30.21 852 25.16 -7.5 18.5 57 -14.6 5.6
09:50 1023 30.21 852 25.16 -7.3 18.9 58 -14.3 6.3
09:55 1023 30.21 852 25.16 -7.1 19.2 59 -13.8 7.1
10:00 1023 30.21 852 25.16 -6.8 19.8 55 -14.4 6
10:05 1023 30.21 852 25.16 -6.8 19.8 56 -14.2 6.4
10:10 1023 30.21 852 25.16 -6.4 20.4 55 -14 6.8
10:15 1023 30.21 852 25.16 -6.3 20.6 52 -14.6 5.8
10:20 1023 30.21 852 25.16 -6.6 20.1 54 -14.3 6.2
10:25 1023 30.21 852 25.16 -6.7 19.9 56 -14.1 6.5
10:30 1023 30.21 852 25.16 -6.2 20.8 52 -14.5 5.8
10:35 1023 30.21 852 25.16 -5.9 21.4 51 -14.5 5.9
10:40 1023 30.21 852 25.16 -6.4 20.5 50 -15.2 4.6
10:45 1023 30.21 852 25.16 -6.5 20.4 53 -14.5 5.9
10:50 1023 30.21 852 25.16 -6.8 19.8 55 -14.5 6
10:55 1023 30.21 852 25.16 -6.7 19.9 56 -14.1 6.6
11:00 1023 30.21 852 25.16 -6 21.2 50 -14.8 5.4
11:05 1023 30.21 852 25.16 -5.7 21.7 52 -14 6.8
11:10 1023 30.21 852 25.16 -5.2 22.6 48 -14.6 5.7
11:15 1022 30.18 852 25.16 -4.8 23.3 48 -14.4 6.1
11:20 1022 30.18 852 25.16 -5.4 22.3 48 -14.7 5.6
11:25 1022 30.18 852 25.16 -6.1 21 54 -14.1 6.6
11:30 1022 30.18 852 25.16 -5.7 21.8 50 -14.6 5.7
11:35 1022 30.18 851 25.13 -6 21.2 53 -14.2 6.5
11:40 1022 30.18 851 25.13 -6 21.1 50 -14.9 5.2
11:45 1022 30.18 851 25.13 -5.6 22 52 -14 6.9
11:50 1022 30.18 851 25.13 -5.2 22.6 50 -14.2 6.5
11:55 1022 30.18 851 25.13 -5 23 51 -13.7 7.3
12:00 1022 30.18 851 25.13 -5.5 22 51 -14.2 6.4
12:05 1022 30.18 851 25.13 -5.3 22.4 51 -14 6.8
12:10 1022 30.18 851 25.13 -5.2 22.6 48 -14.6 5.8
12:15 1022 30.18 851 25.13 -5.1 22.8 47 -14.8 5.4
12:20 1022 30.18 851 25.13 -5 23 49 -14.1 6.6
12:25 1022 30.18 851 25.13 -4.8 23.3 48 -14.2 6.4
12:30 1022 30.18 851 25.13 -5.1 22.8 52 -13.6 7.6
12:35 1022 30.18 851 25.13 -4.6 23.7 46 -14.6 5.8
12:40 1022 30.18 851 25.13 -4.1 24.6 47 -13.9 6.9
12:45 1022 30.18 851 25.13 -4.2 24.5 47 -13.9 7
12:50 1022 30.18 851 25.13 -3.8 25.2 46 -13.8 7.1
12:55 1022 30.18 851 25.13 -4.5 23.9 50 -13.4 7.9
13:00 1022 30.18 851 25.13 -4.3 24.3 48 -13.8 7.2
13:05 1022 30.18 851 25.13 -4 24.8 46 -13.9 6.9
13:10 1022 30.18 851 25.13 -4.4 24.1 46 -14.3 6.2
13:15 1022 30.18 851 25.13 -4.5 23.8 47 -14.2 6.5
13:20 1022 30.18 851 25.13 -4.4 24.1 46 -14.4 6.1
13:25 1022 30.18 851 25.13 -4.3 24.2 47 -14 6.8
13:30 1021 30.15 851 25.13 -4.2 24.5 46 -14.3 6.3
13:35 1021 30.15 851 25.13 -4.3 24.3 49 -13.4 7.8
13:40 1021 30.15 851 25.13 -4.1 24.5 46 -14.1 6.6
13:45 1021 30.15 850 25.1 -4.1 24.7 42 -15.1 4.8
13:50 1021 30.15 850 25.1 -4.1 24.6 47 -13.7 7.3
13:55 1021 30.15 850 25.1 -3.9 24.9 46 -13.8 7.1
14:00 1021 30.15 850 25.1 -3.9 24.9 48 -13.4 7.8
14:05 1021 30.15 850 25.1 -4.1 24.6 49 -13.3 8.1
14:10 1021 30.15 850 25.1 -4.1 24.6 49 -13.4 8
14:15 1021 30.15 850 25.1 -3.8 25.2 47 -13.5 7.6
14:20 1021 30.15 850 25.1 -4.2 24.5 45 -14.4 6
14:25 1021 30.15 850 25.1 -4 24.8 44 -14.4 6
14:30 1021 30.15 850 25.1 -3.6 25.6 45 -13.8 7.2
14:35 1021 30.15 850 25.1 -3.6 25.5 43 -14.6 5.7
14:40 1021 30.15 850 25.1 -3.7 25.4 45 -14 6.8
14:45 1021 30.15 850 25.1 -3 26.6 40 -14.7 5.6
14:50 1021 30.15 850 25.1 -3.5 25.8 40 -15.4 4.4
14:55 1021 30.15 850 25.1 -3.2 26.3 43 -13.9 7
15:00 1021 30.15 850 25.1 -3 26.6 42 -14.3 6.3
15:05 1021 30.15 850 25.1 -2.8 27 39 -14.9 5.1
15:10 1021 30.15 850 25.1 -2.8 26.9 42 -14.1 6.6
15:15 1021 30.15 850 25.1 -3 26.7 42 -14.1 6.6
15:20 1021 30.15 850 25.1 -3.1 26.3 44 -13.8 7.1
15:25 1021 30.15 850 25.1 -2.6 27.3 40 -14.6 5.8
15:30 1021 30.15 850 25.1 -2.7 27.2 39 -15 5.1
15:35 1021 30.15 850 25.1 -2.8 27 38 -15.4 4.3
15:40 1021 30.15 850 25.1 -2.8 26.9 39 -15.1 4.8
15:45 1021 30.15 850 25.1 -2.6 27.4 42 -13.8 7.2
15:50 1021 30.15 850 25.1 -2.2 28.1 39 -14.4 6
15:55 1021 30.15 850 25.1 -1.7 29 37 -14.4 6
16:00 1021 30.15 850 25.1 -1.7 28.9 38 -14.3 6.3
16:05 1021 30.15 850 25.1 -1.2 29.8 37 -14.1 6.7
16:10 1021 30.15 850 25.1 -1.5 29.3 41 -13.2 8.2
16:15 1021 30.15 850 25.1 -2.1 28.2 45 -12.5 9.6
16:20 1021 30.15 850 25.1 -2.4 27.7 47 -12.2 10
16:25 1021 30.15 850 25.1 -2.7 27.1 46 -12.9 8.7
16:30 1021 30.15 850 25.1 -2.5 27.4 46 -12.8 9
16:35 1021 30.15 850 25.1 -2.1 28.2 46 -12.1 10.1
16:40 1021 30.15 850 25.1 -2.5 27.5 49 -11.9 10.6
16:45 1021 30.15 850 25.1 -2.6 27.2 51 -11.5 11.3
16:50 1021 30.15 850 25.1 -2.9 26.7 54 -10.9 12.4
16:55 1021 30.15 850 25.1 -3.5 25.7 58 -10.6 12.9
17:00 1021 30.15 850 25.1 -4.1 24.6 56 -11.5 11.2
00:05 1022 30.18 851 25.13 -8.7 16.4 63 -14.6 5.8
00:10 1022 30.18 851 25.13 -8.6 16.4 63 -14.5 5.8
00:15 1022 30.18 851 25.13 -8.6 16.5 63 -14.5 5.9
00:20 1022 30.18 851 25.13 -8.6 16.6 63 -14.4 6.1
00:25 1022 30.18 851 25.13 -8.5 16.7 63 -14.3 6.3
00:30 1022 30.18 851 25.13 -8.4 16.8 63 -14.3 6.3
00:35 1022 30.18 851 25.13 -8.4 16.8 63 -14.3 6.3
00:40 1022 30.18 851 25.13 -8.6 16.6 64 -14.2 6.4
00:45 1022 30.18 851 25.13 -8.8 16.2 65 -14.2 6.4
00:50 1022 30.18 851 25.13 -8.9 16.1 66 -14 6.7
00:55 1022 30.18 851 25.13 -8.8 16.1 67 -13.9 7
01:00 1022 30.18 851 25.13 -8.8 16.2 67 -13.8 7.2
01:05 1022 30.18 851 25.13 -8.7 16.4 68 -13.6 7.5
01:10 1022 30.18 851 25.13 -8.5 16.7 67 -13.6 7.6
01:15 1022 30.18 851 25.13 -8.6 16.5 70 -13.2 8.3
01:20 1022 30.18 851 25.13 -8.7 16.3 73 -12.7 9.2
01:25 1022 30.18 851 25.13 -8.7 16.4 74 -12.6 9.4
01:30 1022 30.18 851 25.13 -8.7 16.4 75 -12.2 10
01:35 1022 30.18 851 25.13 -8.6 16.5 77 -12 10.3
01:40 1022 30.18 851 25.13 -8.6 16.6 77 -11.9 10.6
01:45 1022 30.18 851 25.13 -8.7 16.4 78 -11.8 10.7
01:50 1022 30.18 851 25.13 -8.8 16.2 79 -11.8 10.8
01:55 1022 30.18 851 25.13 -8.9 16 80 -11.7 10.9
02:00 1022 30.18 851 25.13 -8.9 16.1 81 -11.6 11.1
02:05 1022 30.18 851 25.13 -8.8 16.2 81 -11.5 11.3
02:10 1022 30.18 851 25.13 -8.8 16.1 82 -11.4 11.5
02:15 1022 30.18 851 25.13 -8.8 16.1 83 -11.3 11.7
02:20 1022 30.18 851 25.13 -9 15.8 83 -11.5 11.4
02:25 1022 30.18 851 25.13 -9.2 15.5 83 -11.5 11.2
02:30 1022 30.18 851 25.13 -9.3 15.3 84 -11.5 11.3
02:35 1022 30.18 851 25.13 -9.3 15.3 84 -11.4 11.4
02:40 1022 30.18 851 25.13 -9.2 15.5 85 -11.3 11.6
02:45 1022 30.18 851 25.13 -9.1 15.6 85 -11.3 11.7
02:50 1022 30.18 851 25.13 -9 15.8 84 -11.3 11.7
02:55 1022 30.18 851 25.13 -9 15.9 84 -11.1 11.9
03:00 1022 30.18 851 25.13 -8.9 16 84 -11 12.1
03:05 1022 30.18 851 25.13 -8.8 16.1 85 -11 12.3
03:10 1022 30.18 851 25.13 -8.8 16.3 85 -10.9 12.4
03:15 1022 30.18 851 25.13 -8.8 16.2 85 -10.8 12.5
03:20 1022 30.18 851 25.13 -8.7 16.4 85 -10.8 12.6
03:25 1022 30.18 851 25.13 -8.6 16.5 86 -10.6 12.9
03:30 1022 30.18 851 25.13 -8.5 16.7 85 -10.6 12.8
03:35 1022 30.18 851 25.13 -8.5 16.7 85 -10.5 13
03:40 1022 30.18 851 25.13 -8.5 16.6 85 -10.7 12.8
03:45 1022 30.18 851 25.13 -8.6 16.6 85 -10.6 13
03:50 1022 30.18 851 25.13 -8.5 16.7 86 -10.5 13.1
03:55 1022 30.18 851 25.13 -8.4 17 85 -10.4 13.3
04:00 1022 30.18 851 25.13 -8.2 17.2 85 -10.3 13.5
04:05 1022 30.18 851 25.13 -8.2 17.2 86 -10.2 13.7
04:10 1022 30.18 851 25.13 -8.3 17.1 86 -10.2 13.7
04:15 1022 30.18 851 25.13 -8.4 16.9 87 -10.2 13.6
04:20 1022 30.18 852 25.16 -8.4 16.9 87 -10.1 13.8
04:25 1022 30.18 852 25.16 -8.4 16.9 87 -10.1 13.8
04:30 1022 30.18 852 25.16 -8.4 16.9 87 -10.2 13.6
04:35 1022 30.18 852 25.16 -8.4 16.8 86 -10.3 13.4
04:40 1022 30.18 852 25.16 -8.4 16.9 86 -10.3 13.4
04:45 1022 30.18 852 25.16 -8.3 17.1 84 -10.5 13.1
04:50 1022 30.18 852 25.16 -8.3 17.1 84 -10.6 12.9
04:55 1022 30.18 852 25.16 -8.3 17.1 84 -10.6 13
05:00 1022 30.18 852 25.16 -8.3 17.1 84 -10.6 12.9
05:05 1022 30.18 852 25.16 -8.3 17.1 84 -10.6 12.9
05:10 1022 30.18 852 25.16 -8.4 17 84 -10.7 12.8
05:15 1023 30.21 852 25.16 -8.4 16.9 83 -10.8 12.6
05:20 1023 30.21 852 25.16 -8.5 16.7 83 -10.8 12.5
05:25 1023 30.21 852 25.16 -8.7 16.4 86 -10.7 12.8
05:30 1023 30.21 852 25.16 -9 15.7 87 -10.8 12.6
05:35 1023 30.21 852 25.16 -9.2 15.5 88 -10.8 12.5
05:40 1023 30.21 852 25.16 -9.2 15.5 88 -10.8 12.6
05:45 1023 30.21 852 25.16 -9.2 15.4 88 -10.9 12.4
05:50 1023 30.21 852 25.16 -9.4 15.1 88 -11 12.2
05:55 1023 30.21 852 25.16 -9.4 15.1 88 -11 12.2
06:00 1023 30.21 852 25.16 -9.4 15 88 -11 12.1
06:05 1023 30.21 852 25.16 -9.4 15.1 88 -11 12.2
06:10 1023 30.21 852 25.16 -9.3 15.3 88 -10.9 12.4
06:15 1023 30.21 852 25.16 -9.1 15.6 88 -10.8 12.5
06:20 1023 30.21 852 25.16 -9.1 15.6 87 -10.8 12.5
06:25 1023 30.21 852 25.16 -9.1 15.5 87 -10.9 12.4
06:30 1023 30.21 852 25.16 -9.2 15.4 87 -10.9 12.3
06:35 1023 30.21 852 25.16 -9.2 15.4 87 -10.9 12.3
06:40 1023 30.21 852 25.16 -9.2 15.5 88 -10.9 12.5
06:45 1023 30.21 852 25.16 -9.2 15.5 87 -10.9 12.4
06:50 1023 30.21 852 25.16 -9.2 15.5 87 -10.9 12.4
06:55 1023 30.21 852 25.16 -9 15.7 87 -10.8 12.5
07:00 1023 30.21 852 25.16 -8.9 15.9 87 -10.8 12.6
07:05 1023 30.21 852 25.16 -8.8 16.1 86 -10.7 12.8
07:10 1023 30.21 852 25.16 -8.7 16.4 86 -10.7 12.8
07:15 1023 30.21 852 25.16 -8.7 16.4 86 -10.6 12.9
07:20 1023 30.21 852 25.16 -8.7 16.4 85 -10.7 12.7
07:25 1023 30.21 852 25.16 -8.9 16 86 -10.8 12.6
07:30 1023 30.21 852 25.16 -8.9 15.9 87 -10.7 12.7
07:35 1023 30.21 852 25.16 -8.8 16.2 86 -10.7 12.7
07:40 1023 30.21 852 25.16 -8.6 16.4 86 -10.6 12.9
07:45 1023 30.21 852 25.16 -8.5 16.8 85 -10.5 13.1
07:50 1023 30.21 852 25.16 -8.3 17.1 85 -10.4 13.2
07:55 1023 30.21 852 25.16 -8 17.6 82 -10.5 13.1
08:00 1023 30.21 853 25.19 -7.8 17.9 82 -10.5 13.2
08:05 1023 30.21 853 25.19 -7.7 18.2 80 -10.5 13.1
08:10 1023 30.21 853 25.19 -7.7 18.2 80 -10.5 13.1
08:15 1023 30.21 853 25.19 -7.7 18.1 80 -10.5 13
08:20 1023 30.21 853 25.19 -7.6 18.3 79 -10.6 12.9
08:25 1023 30.21 853 25.19 -7.4 18.7 77 -10.7 12.7
08:30 1023 30.21 853 25.19 -7.3 18.9 76 -10.8 12.6
08:35 1023 30.21 853 25.19 -7.3 18.9 77 -10.7 12.7
08:40 1023 30.21 853 25.19 -7.3 18.8 77 -10.7 12.7
08:45 1023 30.21 853 25.19 -7 19.3 76 -10.6 12.9
08:50 1023 30.21 853 25.19 -6.2 20.8 68 -11.3 11.7
08:55 1024 30.24 853 25.19 -5.8 21.6 67 -10.9 12.4
09:00 1024 30.24 853 25.19 -5.4 22.3 68 -10.5 13.1
09:05 1024 30.24 853 25.19 -5.5 22.1 71 -10 14.1
09:10 1024 30.24 853 25.19 -6 21.1 72 -10.3 13.5
09:15 1024 30.24 853 25.19 -5.6 22 70 -10.2 13.7
09:20 1024 30.24 853 25.19 -5.6 21.9 70 -10.3 13.5
09:25 1024 30.24 853 25.19 -5.7 21.7 71 -10.1 13.8
09:30 1024 30.24 853 25.19 -5.4 22.3 68 -10.3 13.5
09:35 1024 30.24 853 25.19 -5.8 21.6 74 -9.7 14.6
09:40 1024 30.24 853 25.19 -4.9 23.2 69 -9.7 14.5
09:45 1024 30.24 853 25.19 -4.3 24.2 69 -9.2 15.5
09:50 1024 30.24 853 25.19 -4.8 23.4 72 -9.1 15.6
09:55 1024 30.24 853 25.19 -4.6 23.8 68 -9.6 14.7
10:00 1024 30.24 853 25.19 -5 23 70 -9.7 14.6
10:05 1024 30.24 853 25.19 -5 23.1 67 -10.1 13.8
10:10 1024 30.24 853 25.19 -4.6 23.7 68 -9.7 14.5
10:15 1024 30.24 853 25.19 -4.2 24.5 66 -9.6 14.7
10:20 1024 30.24 853 25.19 -4.2 24.4 66 -9.7 14.5
10:25 1024 30.24 853 25.19 -4.3 24.3 66 -9.6 14.7
10:30 1024 30.24 853 25.19 -4.1 24.6 58 -11.1 12
10:35 1024 30.24 853 25.19 -3.8 25.1 59 -10.7 12.7
10:40 1024 30.24 853 25.19 -4.1 24.6 62 -10.3 13.5
10:45 1024 30.24 853 25.19 -4.1 24.6 56 -11.5 11.3
10:50 1024 30.24 853 25.19 -4.6 23.7 58 -11.7 11
10:55 1024 30.24 853 25.19 -4.7 23.6 58 -11.7 11
11:00 1024 30.24 853 25.19 -4.8 23.3 58 -11.9 10.7
11:05 1024 30.24 853 25.19 -5.1 22.8 61 -11.6 11.2
11:10 1024 30.24 853 25.19 -4.9 23.2 61 -11.2 11.8
11:15 1024 30.24 853 25.19 -5 23.1 60 -11.6 11.2
11:20 1024 30.24 853 25.19 -4.4 24.1 58 -11.5 11.4
11:25 1024 30.24 853 25.19 -3.4 25.9 55 -11.2 11.8
11:30 1024 30.24 853 25.19 -3.7 25.4 57 -11.1 12
11:35 1024 30.24 853 25.19 -4.1 24.7 54 -12.1 10.2
11:40 1024 30.24 853 25.19 -4.2 24.5 54 -12.2 10
11:45 1024 30.24 853 25.19 -4.7 23.5 58 -11.8 10.8
11:50 1024 30.24 853 25.19 -4.2 24.5 57 -11.6 11.2
11:55 1024 30.24 853 25.19 -4 24.8 54 -12 10.4
12:00 1024 30.24 853 25.19 -3.6 25.6 49 -12.8 9
12:05 1024 30.24 853 25.19 -3.1 26.5 47 -12.8 9
12:10 1023 30.21 853 25.19 -1.4 29.5 37 -14.1 6.5
12:15 1023 30.21 853 25.19 -0.3 31.4 40 -12.5 9.5
12:20 1023 30.21 853 25.19 -0.7 30.7 42 -12.1 10.2
12:25 1023 30.21 853 25.19 -1.8 28.8 42 -13 8.7
12:30 1023 30.21 853 25.19 -2.1 28.2 46 -12.3 9.8
12:35 1023 30.21 853 25.19 -3 26.5 47 -12.8 9
12:40 1023 30.21 853 25.19 -3.1 26.5 46 -13 8.5
12:45 1023 30.21 853 25.19 -2.5 27.4 43 -13.4 7.9
12:50 1023 30.21 853 25.19 -1.5 29.2 39 -13.9 7
12:55 1023 30.21 852 25.16 -1.5 29.2 40 -13.4 7.9
13:00 1023 30.21 852 25.16 -1.7 29 41 -13.1 8.4
13:05 1023 30.21 852 25.16 -1.7 28.9 41 -13.4 7.8
13:10 1023 30.21 852 25.16 -1.8 28.7 40 -13.7 7.3
13:15 1023 30.21 852 25.16 -1.3 29.7 37 -14.1 6.6
13:20 1023 30.21 852 25.16 -1 30.1 34 -15 5.1
13:25 1023 30.21 852 25.16 -1.1 30 37 -14 6.9
13:30 1023 30.21 852 25.16 -1.5 29.3 40 -13.5 7.6
13:35 1023 30.21 852 25.16 -2 28.3 40 -13.9 7
13:40 1023 30.21 852 25.16 -2.6 27.3 42 -13.8 7.1
13:45 1023 30.21 852 25.16 -2.3 27.9 42 -13.7 7.3
13:50 1023 30.21 852 25.16 -2.1 28.2 42 -13.5 7.8
13:55 1023 30.21 852 25.16 -2.3 27.8 40 -14.2 6.5
14:00 1023 30.21 852 25.16 -2.4 27.7 38 -15 5.1
14:05 1023 30.21 852 25.16 -2.2 28.1 42 -13.5 7.7
14:10 1023 30.21 852 25.16 -2 28.4 38 -14.5 5.9
14:15 1023 30.21 852 25.16 -1.9 28.5 40 -13.8 7.2
14:20 1023 30.21 852 25.16 -2.1 28.3 40 -14 6.8
14:25 1023 30.21 852 25.16 -1.9 28.6 38 -14.3 6.2
14:30 1023 30.21 852 25.16 -2 28.4 35 -15.4 4.3
14:35 1023 30.21 852 25.16 -1.8 28.8 37 -14.5 5.8
14:40 1023 30.21 852 25.16 -0.8 30.6 34 -14.8 5.4
14:45 1023 30.21 852 25.16 -1 30.2 34 -15.1 4.9
14:50 1023 30.21 852 25.16 -1.4 29.5 35 -15.1 4.8
14:55 1023 30.21 852 25.16 -1.1 30.1 36 -14.3 6.2
15:00 1023 30.21 852 25.16 -0.8 30.5 34 -15 5
15:05 1023 30.21 852 25.16 -1.6 29.2 36 -14.8 5.3
15:10 1023 30.21 852 25.16 -1.3 29.6 33 -15.7 3.8
15:15 1023 30.21 852 25.16 -1.1 30.1 35 -14.8 5.4
15:20 1023 30.21 852 25.16 -1.3 29.6 37 -14.1 6.6
15:25 1023 30.21 852 25.16 -1.8 28.7 37 -14.8 5.3
15:30 1023 30.21 852 25.16 -1.7 28.9 34 -15.5 4.1
15:35 1023 30.21 852 25.16 -1.8 28.7 35 -15.5 4.2
15:40 1023 30.21 852 25.16 -1.7 28.9 36 -14.8 5.3
15:45 1023 30.21 852 25.16 -1.4 29.4 33 -15.6 3.9
15:50 1023 30.21 852 25.16 -1.1 30 34 -15.1 4.8
15:55 1023 30.21 852 25.16 -1.3 29.6 34 -15.4 4.2
16:00 1023 30.21 852 25.16 -1.4 29.5 33 -15.7 3.8
16:05 1023 30.21 852 25.16 -1.2 29.9 32 -15.7 3.7
16:10 1023 30.21 852 25.16 -0.4 31.2 32 -15.4 4.3
16:15 1023 30.21 852 25.16 -0.9 30.3 33 -15.1 4.8
16:20 1022 30.18 852 25.16 -1 30.2 33 -15.4 4.2
16:25 1022 30.18 852 25.16 -0.9 30.3 33 -15.4 4.4
16:30 1022 30.18 852 25.16 -1 30.1 33 -15.6 4
16:35 1022 30.18 852 25.16 -1.4 29.6 32 -16 3.1
16:40 1022 30.18 852 25.16 -1.4 29.5 32 -16 3.2
16:45 1022 30.18 852 25.16 -1.4 29.4 32 -16 3.2
16:50 1022 30.18 852 25.16 -1.3 29.6 33 -15.7 3.7
16:55 1022 30.18 852 25.16 -1.1 30 32 -15.6 3.8
17:00 1022 30.18 852 25.16 -1.1 30 32 -16 3.2
00:05 1021 30.15 851 25.13 -7.5 18.6 49 -16.3 2.6
00:10 1021 30.15 851 25.13 -7.4 18.7 49 -16.4 2.4
00:15 1021 30.15 851 25.13 -7.2 19 48 -16.4 2.5
00:20 1021 30.15 851 25.13 -7.3 18.9 50 -16 3.1
00:25 1021 30.15 851 25.13 -7.4 18.7 51 -16 3.2
00:30 1021 30.15 851 25.13 -7.5 18.4 51 -16.1 3
00:35 1021 30.15 851 25.13 -7.6 18.3 51 -16 3.2
00:40 1021 30.15 851 25.13 -7.6 18.3 51 -16.1 2.9
00:45 1021 30.15 851 25.13 -7.6 18.3 50 -16.4 2.4
00:50 1021 30.15 851 25.13 -7.5 18.5 51 -16.1 3
00:55 1021 30.15 851 25.13 -7.6 18.4 50 -16.2 2.8
01:00 1021 30.15 851 25.13 -7.4 18.6 51 -15.8 3.5
01:05 1021 30.15 851 25.13 -7.7 18.2 54 -15.4 4.2
01:10 1021 30.15 851 25.13 -7.8 17.9 54 -15.6 3.9
01:15 1021 30.15 851 25.13 -7.8 17.9 52 -16 3.2
01:20 1021 30.15 851 25.13 -7.8 18.1 52 -15.9 3.3
01:25 1021 30.15 851 25.13 -8.1 17.4 55 -15.6 3.9
01:30 1021 30.15 851 25.13 -8.3 17.1 55 -15.8 3.6
01:35 1021 30.15 851 25.13 -8.3 17.1 55 -15.8 3.6
01:40 1021 30.15 851 25.13 -8.3 17 55 -15.9 3.4
01:45 1021 30.15 851 25.13 -8.4 16.8 54 -16.1 3
01:50 1021 30.15 851 25.13 -8.5 16.8 55 -16 3.1
01:55 1021 30.15 851 25.13 -8.5 16.7 55 -16 3.2
02:00 1021 30.15 851 25.13 -8.6 16.6 55 -16 3.1
02:05 1021 30.15 850 25.1 -8.6 16.5 54 -16.4 2.5
02:10 1021 30.15 850 25.1 -8.3 17.2 53 -16.3 2.7
02:15 1021 30.15 850 25.1 -8.1 17.4 54 -15.8 3.5
02:20 1021 30.15 851 25.13 -8 17.6 52 -16.1 2.9
02:25 1021 30.15 851 25.13 -7.9 17.7 52 -16.1 3.1
02:30 1021 30.15 851 25.13 -8.1 17.4 53 -16.1 3
02:35 1021 30.15 851 25.13 -8.2 17.2 53 -16.2 2.8
02:40 1021 30.15 850 25.1 -8.2 17.3 52 -16.3 2.7
02:45 1021 30.15 850 25.1 -8.1 17.5 54 -15.9 3.4
02:50 1021 30.15 850 25.1 -8.2 17.3 53 -16.1 3
02:55 1021 30.15 850 25.1 -8.1 17.5 52 -16.2 2.8
03:00 1021 30.15 850 25.1 -8.1 17.4 53 -16.1 3.1
03:05 1021 30.15 850 25.1 -8.3 17.1 53 -16.3 2.6
03:10 1021 30.15 850 25.1 -8.3 17.1 54 -16.1 3
03:15 1021 30.15 850 25.1 -8.4 16.9 54 -16.2 2.8
03:20 1021 30.15 850 25.1 -8.5 16.8 54 -16.3 2.7
03:25 1021 30.15 850 25.1 -8.6 16.5 54 -16.3 2.6
03:30 1021 30.15 850 25.1 -8.6 16.5 54 -16.3 2.6
03:35 1021 30.15 850 25.1 -8.6 16.5 54 -16.3 2.7
03:40 1021 30.15 850 25.1 -8.9 15.9 58 -15.9 3.4
03:45 1021 30.15 850 25.1 -9.1 15.6 57 -16.2 2.8
03:50 1021 30.15 850 25.1 -8.9 16 56 -16.2 2.8
03:55 1021 30.15 850 25.1 -9.1 15.7 56 -16.2 2.8
04:00 1021 30.15 850 25.1 -9 15.7 56 -16.3 2.7
04:05 1021 30.15 850 25.1 -9 15.7 56 -16.4 2.5
04:10 1021 30.15 850 25.1 -8.8 16.1 54 -16.5 2.4
04:15 1021 30.15 850 25.1 -8.8 16.3 54 -16.5 2.3
04:20 1021 30.15 850 25.1 -8.7 16.3 54 -16.6 2.2
04:25 1021 30.15 850 25.1 -8.9 16 56 -16.2 2.8
04:30 1021 30.15 850 25.1 -9 15.7 55 -16.6 2.1
04:35 1021 30.15 850 25.1 -8.7 16.4 53 -16.7 1.9
04:40 1021 30.15 850 25.1 -8.5 16.8 52 -16.7 1.9
04:45 1021 30.15 850 25.1 -8.2 17.3 50 -16.7 1.9
04:50 1021 30.15 850 25.1 -8.2 17.3 52 -16.5 2.3
04:55 1021 30.15 850 25.1 -8.4 16.9 52 -16.5 2.2
05:00 1021 30.15 850 25.1 -8.6 16.5 53 -16.5 2.2
05:05 1021 30.15 850 25.1 -8.6 16.5 53 -16.7 2
05:10 1021 30.15 850 25.1 -8.7 16.3 54 -16.4 2.4
05:15 1021 30.15 850 25.1 -8.8 16.2 53 -16.8 1.8
05:20 1021 30.15 850 25.1 -8.5 16.8 51 -16.8 1.8
05:25 1021 30.15 850 25.1 -8.4 16.8 52 -16.6 2
05:30 1021 30.15 850 25.1 -8.5 16.7 53 -16.6 2.2
05:35 1021 30.15 850 25.1 -8.8 16.1 54 -16.5 2.3
05:40 1021 30.15 850 25.1 -9.3 15.3 56 -16.5 2.2
05:45 1021 30.15 850 25.1 -9.4 15.2 54 -17 1.4
05:50 1021 30.15 850 25.1 -8.8 16.2 52 -17 1.4
05:55 1021 30.15 850 25.1 -8.2 17.2 51 -16.7 2
06:00 1021 30.15 850 25.1 -8 17.6 49 -16.9 1.6
06:05 1021 30.15 850 25.1 -7.8 18 47 -17.1 1.2
06:10 1021 30.15 850 25.1 -7.9 17.9 49 -16.8 1.7
06:15 1021 30.15 850 25.1 -8.4 16.9 52 -16.5 2.2
06:20 1021 30.15 850 25.1 -8.9 16 54 -16.6 2.2
06:25 1021 30.15 850 25.1 -9 15.9 53 -16.9 1.5
06:30 1021 30.15 850 25.1 -8.8 16.1 53 -16.8 1.8
06:35 1021 30.15 850 25.1 -8.8 16.1 52 -16.9 1.6
06:40 1021 30.15 850 25.1 -8.6 16.5 52 -16.9 1.6
06:45 1021 30.15 850 25.1 -8.5 16.6 51 -17 1.4
06:50 1021 30.15 850 25.1 -8.4 16.9 51 -16.8 1.7
06:55 1021 30.15 850 25.1 -8.2 17.3 50 -16.8 1.7
07:00 1021 30.15 850 25.1 -8.2 17.3 50 -16.9 1.5
07:05 1021 30.15 850 25.1 -8.1 17.4 49 -16.9 1.5
07:10 1021 30.15 850 25.1 -7.9 17.9 50 -16.7 2
07:15 1021 30.15 850 25.1 -7.5 18.5 48 -16.6 2
07:20 1021 30.15 850 25.1 -7.4 18.7 49 -16.3 2.7
07:25 1021 30.15 850 25.1 -7.3 18.9 50 -16 3.2
07:30 1021 30.15 850 25.1 -7.3 18.9 51 -15.8 3.5
07:35 1021 30.15 850 25.1 -7 19.4 49 -16 3.3
07:40 1021 30.15 850 25.1 -6.8 19.8 49 -15.9 3.4
07:45 1021 30.15 850 25.1 -6.6 20.1 47 -16.3 2.7
07:50 1021 30.15 850 25.1 -6.7 19.9 47 -16.3 2.6
07:55 1021 30.15 850 25.1 -6.4 20.5 46 -16.3 2.6
08:00 1021 30.15 850 25.1 -5.9 21.4 46 -15.8 3.5
08:05 1021 30.15 850 25.1 -5.6 22 43 -16.3 2.7
08:10 1021 30.15 850 25.1 -5.3 22.4 42 -16.3 2.7
08:15 1021 30.15 850 25.1 -4.8 23.4 39 -16.9 1.6
08:20 1021 30.15 850 25.1 -4.4 24 40 -16.2 2.8
08:25 1021 30.15 850 25.1 -4.2 24.5 39 -16.2 2.8
08:30 1021 30.15 850 25.1 -3.7 25.4 36 -16.8 1.7
08:35 1021 30.15 850 25.1 -4.2 24.5 37 -16.8 1.7
08:40 1021 30.15 850 25.1 -4 24.8 36 -17.2 1.1
08:45 1021 30.15 850 25.1 -3.9 24.9 35 -17.4 0.6
08:50 1021 30.15 850 25.1 -3.4 25.9 34 -17.2 1
08:55 1021 30.15 850 25.1 -3.1 26.5 33 -17.4 0.7
00:05 1013 29.91 843 24.89 -6.4 20.5 52 -14.8 5.4
00:10 1013 29.91 843 24.89 -6.3 20.6 52 -14.6 5.7
00:15 1014 29.94 843 24.89 -6.3 20.6 52 -14.8 5.4
00:20 1014 29.94 843 24.89 -6.7 20 53 -14.7 5.6
00:25 1014 29.94 843 24.89 -7 19.3 58 -14 6.9
00:30 1014 29.94 843 24.89 -7.8 18.1 58 -14.6 5.7
00:35 1014 29.94 843 24.89 -7.4 18.8 56 -14.6 5.6
00:40 1014 29.94 843 24.89 -7.3 18.9 57 -14.3 6.2
00:45 1014 29.94 843 24.89 -7.4 18.8 58 -14.4 6.1
00:50 1014 29.94 843 24.89 -7.4 18.7 57 -14.4 6
00:55 1013 29.91 843 24.89 -7.4 18.8 54 -15.1 4.9
01:00 1013 29.91 843 24.89 -7.1 19.2 54 -14.9 5.2
01:05 1013 29.91 843 24.89 -7.2 19 55 -14.8 5.4
01:10 1013 29.91 843 24.89 -7.4 18.6 58 -14.3 6.2
01:15 1013 29.91 843 24.89 -7.7 18.1 60 -14.3 6.3
01:20 1013 29.91 843 24.89 -7.6 18.4 57 -14.7 5.6
01:25 1013 29.91 843 24.89 -7.4 18.6 60 -14 6.8
01:30 1013 29.91 843 24.89 -8.1 17.4 63 -14.1 6.7
01:35 1013 29.91 843 24.89 -8.6 16.5 65 -14.1 6.6
01:40 1013 29.91 843 24.89 -8.9 15.9 66 -14.2 6.5
01:45 1013 29.91 843 24.89 -8.8 16.2 65 -14.2 6.4
01:50 1013 29.91 843 24.89 -8.8 16.3 65 -14.1 6.6
01:55 1013 29.91 843 24.89 -8.9 15.9 67 -14 6.7
02:00 1013 29.91 843 24.89 -9.2 15.4 68 -14.1 6.6
02:05 1013 29.91 843 24.89 -9.5 14.9 69 -14.2 6.5
02:10 1013 29.91 843 24.89 -9.5 14.8 69 -14.1 6.5
02:15 1013 29.91 843 24.89 -9.4 15.1 69 -14.1 6.7
02:20 1013 29.91 843 24.89 -9.3 15.4 69 -14 6.8
02:25 1013 29.91 843 24.89 -9.2 15.4 69 -13.9 6.9
02:30 1013 29.91 843 24.89 -9.1 15.7 68 -13.9 6.9
02:35 1013 29.91 842 24.86 -8.8 16.2 68 -13.7 7.3
02:40 1013 29.91 842 24.86 -8.6 16.5 67 -13.7 7.4
02:45 1013 29.91 842 24.86 -8.4 17 66 -13.6 7.6
02:50 1013 29.91 842 24.86 -8 17.6 65 -13.4 7.9
02:55 1013 29.91 842 24.86 -7.9 17.8 65 -13.4 8
03:00 1013 29.91 842 24.86 -7.8 18.1 64 -13.4 7.9
03:05 1013 29.91 842 24.86 -7.8 17.9 65 -13.3 8.1
03:10 1013 29.91 842 24.86 -8 17.7 66 -13.2 8.3
03:15 1013 29.91 842 24.86 -8 17.7 65 -13.4 7.9
03:20 1013 29.91 842 24.86 -7.8 17.9 66 -13.2 8.3
03:25 1013 29.91 842 24.86 -7.7 18.1 64 -13.4 7.8
03:30 1013 29.91 842 24.86 -7.7 18.2 64 -13.3 8.1
03:35 1013 29.91 842 24.86 -7.7 18.2 65 -13.2 8.2
03:40 1013 29.91 842 24.86 -7.7 18.1 65 -13.3 8.1
03:45 1013 29.91 842 24.86 -7.7 18.1 65 -13.2 8.3
03:50 1013 29.91 842 24.86 -7.6 18.4 65 -13.1 8.4
03:55 1013 29.91 842 24.86 -7.5 18.6 65 -13 8.6
04:00 1013 29.91 842 24.86 -7.4 18.7 65 -12.9 8.8
04:05 1013 29.91 842 24.86 -7.3 18.9 65 -12.8 8.9
04:10 1013 29.91 842 24.86 -7.1 19.2 64 -12.9 8.9
04:15 1013 29.91 842 24.86 -7 19.4 64 -12.7 9.1
04:20 1013 29.91 842 24.86 -6.9 19.5 63 -12.8 9
04:25 1013 29.91 842 24.86 -6.8 19.7 63 -12.7 9.2
04:30 1013 29.91 842 24.86 -7 19.5 64 -12.6 9.3
04:35 1013 29.91 842 24.86 -7 19.4 65 -12.6 9.3
04:40 1013 29.91 842 24.86 -6.9 19.5 64 -12.6 9.2
04:45 1013 29.91 842 24.86 -6.9 19.6 63 -12.9 8.8
04:50 1013 29.91 842 24.86 -6.7 20 62 -12.8 8.9
04:55 1013 29.91 842 24.86 -6.8 19.8 62 -12.8 8.9
05:00 1013 29.91 842 24.86 -7.1 19.2 64 -12.7 9.1
05:05 1013 29.91 842 24.86 -7.4 18.6 64 -13.1 8.4
05:10 1013 29.91 842 24.86 -7.6 18.4 60 -14 6.7
05:15 1013 29.91 842 24.86 -7.6 18.2 59 -14.4 6.2
05:20 1013 29.91 842 24.86 -7.7 18.2 59 -14.4 6.1
05:25 1013 29.91 842 24.86 -7.7 18.2 58 -14.6 5.7
05:30 1013 29.91 842 24.86 -7.2 19 56 -14.6 5.7
05:35 1013 29.91 842 24.86 -7.3 19 56 -14.5 5.9
05:40 1013 29.91 842 24.86 -7.2 19.1 56 -14.6 5.7
05:45 1013 29.91 842 24.86 -7.1 19.3 56 -14.4 6.1
05:50 1013 29.91 842 24.86 -7.1 19.2 57 -14.4 6.2
05:55 1013 29.91 842 24.86 -7.2 19.1 58 -14.1 6.6
06:00 1013 29.91 842 24.86 -7.2 19.1 57 -14.3 6.2
06:05 1013 29.91 842 24.86 -7 19.3 57 -14.2 6.4
06:10 1013 29.91 842 24.86 -7 19.5 58 -14 6.8
06:15 1013 29.91 842 24.86 -7.1 19.3 60 -13.7 7.4
06:20 1013 29.91 842 24.86 -7.3 19 60 -13.7 7.3
06:25 1013 29.91 842 24.86 -7.3 18.9 59 -14 6.9
06:30 1013 29.91 842 24.86 -7.2 19 59 -13.9 7
06:35 1013 29.91 842 24.86 -7.4 18.7 61 -13.7 7.4
06:40 1013 29.91 842 24.86 -7.6 18.4 62 -13.7 7.3
06:45 1013 29.91 842 24.86 -7.5 18.6 61 -13.7 7.4
06:50 1013 29.91 842 24.86 -7.2 19 61 -13.6 7.5
06:55 1013 29.91 842 24.86 -7.1 19.3 60 -13.6 7.5
07:00 1013 29.91 842 24.86 -6.9 19.6 59 -13.6 7.6
07:05 1013 29.91 843 24.89 -6.9 19.6 59 -13.7 7.3
07:10 1013 29.91 843 24.89 -6.8 19.7 59 -13.5 7.8
07:15 1014 29.94 843 24.89 -6.6 20.1 57 -13.7 7.3
07:20 1014 29.94 843 24.89 -6.3 20.6 56 -13.6 7.4
07:25 1014 29.94 843 24.89 -6.1 21 56 -13.4 7.8
07:30 1014 29.94 843 24.89 -6 21.2 57 -13.2 8.2
07:35 1014 29.94 843 24.89 -6.1 21.1 57 -13.2 8.2
07:40 1014 29.94 843 24.89 -6.1 21 58 -13.2 8.3
07:45 1014 29.94 843 24.89 -6.1 21 58 -13.1 8.4
07:50 1014 29.94 843 24.89 -6.1 21 57 -13.3 8.1
07:55 1014 29.94 843 24.89 -6 21.3 57 -13.1 8.4
08:00 1014 29.94 843 24.89 -5.7 21.8 57 -12.9 8.7
08:05 1014 29.94 843 24.89 -5.3 22.4 56 -12.8 9
08:10 1014 29.94 843 24.89 -5.2 22.6 55 -12.9 8.9
08:15 1014 29.94 843 24.89 -5.2 22.6 55 -12.9 8.8
08:20 1014 29.94 843 24.89 -5.2 22.7 55 -12.8 8.9
08:25 1014 29.94 843 24.89 -4.9 23.1 52 -13.3 8.1
08:30 1014 29.94 843 24.89 -4.9 23.2 54 -12.8 8.9
08:35 1014 29.94 843 24.89 -4.8 23.3 53 -13 8.6
08:40 1014 29.94 843 24.89 -4.3 24.2 51 -12.9 8.8
08:45 1014 29.94 843 24.89 -4 24.8 50 -13 8.5
08:50 1014 29.94 843 24.89 -3.7 25.3 50 -12.8 9
08:55 1014 29.94 843 24.89 -3.7 25.3 50 -12.6 9.3
09:00 1014 29.94 843 24.89 -3.9 24.9 50 -13 8.6
09:05 1014 29.94 843 24.89 -3.9 24.9 47 -13.7 7.3
09:10 1014 29.94 843 24.89 -4.3 24.3 50 -13.2 8.2
09:15 1014 29.94 843 24.89 -4 24.8 49 -13.2 8.3
09:20 1014 29.94 843 24.89 -4 24.7 48 -13.4 7.8
09:25 1014 29.94 843 24.89 -3.6 25.5 47 -13.3 8.1
09:30 1014 29.94 844 24.92 -3.6 25.5 49 -12.9 8.8
09:35 1014 29.94 843 24.89 -3.8 25.1 49 -13 8.6
09:40 1014 29.94 843 24.89 -3.9 24.9 48 -13.4 7.8
09:45 1014 29.94 843 24.89 -3.7 25.4 50 -12.7 9.2
09:50 1014 29.94 844 24.92 -3.3 26 49 -12.5 9.5
09:55 1014 29.94 844 24.92 -2.7 27.1 50 -11.8 10.7
10:00 1014 29.94 844 24.92 -2.5 27.5 49 -11.7 10.9
10:05 1014 29.94 844 24.92 -2 28.4 50 -11.2 11.9
10:10 1014 29.94 844 24.92 -2 28.3 51 -10.8 12.6
10:15 1014 29.94 844 24.92 -2.2 28 54 -10.3 13.4
10:20 1014 29.94 844 24.92 -2.3 27.8 57 -9.7 14.5
10:25 1014 29.94 844 24.92 -3.2 26.3 58 -10.3 13.4
10:30 1014 29.94 844 24.92 -2.8 27 56 -10.3 13.4
10:35 1014 29.94 844 24.92 -3.2 26.3 57 -10.5 13.1
10:40 1014 29.94 844 24.92 -2.6 27.3 54 -10.6 12.9
10:45 1014 29.94 844 24.92 -3.1 26.5 56 -10.6 13
10:50 1014 29.94 844 24.92 -3.7 25.3 58 -10.7 12.7
10:55 1014 29.94 844 24.92 -3.2 26.2 55 -11.1 12.1
11:00 1014 29.94 844 24.92 -3.5 25.8 60 -10.3 13.5
11:05 1014 29.94 844 24.92 -3.3 26 54 -11.3 11.7
11:10 1014 29.94 844 24.92 -3.5 25.7 57 -10.7 12.7
11:15 1014 29.94 844 24.92 -3.3 26.1 55 -11.1 12.1
11:20 1014 29.94 844 24.92 -3.4 26 57 -10.8 12.6
11:25 1014 29.94 844 24.92 -3 26.6 51 -11.9 10.6
11:30 1014 29.94 844 24.92 -3 26.7 54 -11 12.2
11:35 1014 29.94 844 24.92 -2.9 26.7 54 -11.1 12
11:40 1014 29.94 844 24.92 -3.7 25.4 56 -11.3 11.7
11:45 1014 29.94 844 24.92 -3.7 25.4 56 -11.3 11.7
11:50 1014 29.94 844 24.92 -3.8 25.1 57 -11.1 12.1
11:55 1014 29.94 844 24.92 -3.9 24.9 60 -10.5 13.1
12:00 1014 29.94 844 24.92 -3.2 26.2 57 -10.5 13.1
12:05 1014 29.94 844 24.92 -2.6 27.4 52 -11.2 11.9
12:10 1014 29.94 844 24.92 -2.6 27.2 52 -11.3 11.7
12:15 1014 29.94 844 24.92 -3.1 26.4 50 -12.1 10.3
12:20 1014 29.94 844 24.92 -3 26.7 51 -11.6 11.1
12:25 1014 29.94 844 24.92 -1.8 28.7 46 -12 10.5
12:30 1014 29.94 844 24.92 -2.6 27.3 53 -10.9 12.4
12:35 1014 29.94 844 24.92 -2.2 28.1 59 -9.2 15.4
12:40 1014 29.94 844 24.92 -1.1 30.1 51 -10 13.9
12:45 1014 29.94 844 24.92 -1.6 29.2 53 -10 13.9
12:50 1014 29.94 844 24.92 -1.9 28.6 60 -8.6 16.5
12:55 1014 29.94 844 24.92 -2.2 28 59 -9.1 15.6
13:00 1014 29.94 844 24.92 -2.7 27.1 60 -9.5 14.8
13:05 1014 29.94 844 24.92 -2.5 27.6 61 -9.1 15.7
13:10 1014 29.94 844 24.92 -2.3 27.9 58 -9.5 14.9
13:15 1014 29.94 844 24.92 -2.1 28.2 57 -9.6 14.7
13:20 1014 29.94 844 24.92 -1.9 28.7 54 -10 14
13:25 1014 29.94 844 24.92 -0.5 31.1 50 -9.7 14.5
13:30 1015 29.97 844 24.92 -1.6 29.1 71 -6.3 20.7
13:35 1015 29.97 844 24.92 -2.3 27.9 71 -6.9 19.6
13:40 1015 29.97 844 24.92 -2.2 28 67 -7.6 18.4
13:45 1014 29.94 844 24.92 -2.3 27.9 62 -8.6 16.4
13:50 1014 29.94 844 24.92 -1.2 29.8 61 -7.8 17.9
13:55 1014 29.94 844 24.92 -0.9 30.3 49 -10.3 13.4
14:00 1014 29.94 844 24.92 -1.1 30 51 -10 14
14:05 1014 29.94 844 24.92 -1.1 30.1 48 -10.7 12.7
14:10 1014 29.94 844 24.92 -1.2 29.8 48 -10.9 12.4
14:15 1014 29.94 844 24.92 -0.2 31.7 41 -11.8 10.7
14:20 1014 29.94 844 24.92 -0.6 30.9 51 -9.5 15
14:25 1014 29.94 844 24.92 -1.4 29.5 53 -9.7 14.5
14:30 1014 29.94 844 24.92 -1.8 28.7 55 -9.8 14.3
14:35 1014 29.94 844 24.92 -1.8 28.8 55 -9.7 14.6
14:40 1014 29.94 844 24.92 -2.1 28.2 55 -9.9 14.1
14:45 1014 29.94 844 24.92 -2.2 28 56 -9.8 14.4
14:50 1014 29.94 844 24.92 -1.9 28.6 55 -9.7 14.5
14:55 1014 29.94 844 24.92 -1.8 28.8 56 -9.5 15
15:00 1014 29.94 844 24.92 -2.6 27.4 61 -9.2 15.5
15:05 1015 29.97 844 24.92 -1.9 28.5 58 -9.2 15.4
15:10 1015 29.97 844 24.92 -1.7 28.9 59 -8.7 16.3
15:15 1015 29.97 844 24.92 -3.5 25.8 69 -8.3 17.1
15:20 1015 29.97 844 24.92 -4.2 24.5 71 -8.6 16.5
15:25 1015 29.97 844 24.92 -4.6 23.8 76 -8.1 17.4
15:30 1015 29.97 844 24.92 -3.9 25 68 -9 15.8
15:35 1015 29.97 844 24.92 -3.7 25.3 67 -9.1 15.7
15:40 1015 29.97 844 24.92 -3.5 25.6 70 -8.2 17.2
15:45 1015 29.97 844 24.92 -3.5 25.7 70 -8.2 17.2
15:50 1015 29.97 844 24.92 -3.5 25.7 70 -8.2 17.3
15:55 1015 29.97 844 24.92 -3.6 25.5 69 -8.5 16.7
16:00 1015 29.97 844 24.92 -3.7 25.4 67 -9 15.8
16:05 1015 29.97 844 24.92 -3.9 25 66 -9.3 15.2
16:10 1015 29.97 844 24.92 -4.1 24.5 65 -9.8 14.4
16:15 1015 29.97 844 24.92 -4.1 24.5 65 -9.8 14.4
16:20 1015 29.97 844 24.92 -4 24.8 66 -9.4 15.1
16:25 1015 29.97 844 24.92 -3.7 25.3 61 -10.2 13.6
16:30 1015 29.97 844 24.92 -4 24.9 63 -10 13.9
16:35 1015 29.97 844 24.92 -3.7 25.4 62 -10 14
16:40 1015 29.97 845 24.95 -3.5 25.7 64 -9.4 15.1
16:45 1015 29.97 845 24.95 -3.5 25.8 63 -9.6 14.7
16:50 1015 29.97 845 24.95 -3.5 25.6 64 -9.5 14.9
16:55 1015 29.97 845 24.95 -3.4 25.8 58 -10.5 13.1
17:00 1015 29.97 845 24.95 -3.5 25.7 60 -10.1 13.8
17:05 1015 29.97 845 24.95 -3.4 25.9 57 -10.8 12.5
17:10 1016 30 845 24.95 -3.3 26 56 -10.9 12.4
17:15 1016 30 845 24.95 -3.3 26 58 -10.5 13.1
17:20 1016 30 845 24.95 -3.4 25.9 54 -11.4 11.6
17:25 1016 30 845 24.95 -3.4 25.8 59 -10.3 13.5
17:30 1016 30 845 24.95 -3.6 25.6 60 -10.2 13.7
17:35 1016 30 845 24.95 -3.6 25.5 58 -10.8 12.5
17:40 1016 30 845 24.95 -3.6 25.5 57 -10.9 12.4
17:45 1016 30 845 24.95 -3.6 25.6 59 -10.4 13.3
17:50 1016 30 845 24.95 -3.5 25.7 63 -9.6 14.7
17:55 1016 30 845 24.95 -3.8 25.1 66 -9.2 15.4
18:00 1016 30 845 24.95 -4 24.7 65 -9.8 14.4
18:05 1016 30 845 24.95 -4 24.8 66 -9.5 15
18:10 1016 30 845 24.95 -4 24.9 61 -10.4 13.3
18:15 1016 30 845 24.95 -4 24.8 59 -11 12.2
18:20 1016 30 845 24.95 -3.9 25 54 -11.9 10.6
18:25 1016 30 845 24.95 -3.7 25.3 56 -11.2 11.9
18:30 1016 30 845 24.95 -3.8 25.2 61 -10.3 13.5
18:35 1016 30 846 24.98 -3.9 25 64 -9.8 14.3
18:40 1016 30 846 24.98 -3.8 25.1 70 -8.6 16.6
18:45 1016 30 846 24.98 -4.1 24.5 74 -8.2 17.3
18:50 1017 30.03 846 24.98 -4.3 24.2 76 -8 17.7
18:55 1017 30.03 846 24.98 -4.4 24.1 73 -8.5 16.7
19:00 1017 30.03 846 24.98 -4.4 24 69 -9.3 15.3
19:05 1017 30.03 846 24.98 -4.5 23.9 64 -10.3 13.4
19:10 1017 30.03 846 24.98 -4.6 23.7 71 -9 15.7
19:15 1017 30.03 846 24.98 -4.9 23.2 74 -8.9 16
19:20 1017 30.03 846 24.98 -5.1 22.8 76 -8.6 16.4
19:25 1017 30.03 846 24.98 -5.4 22.3 80 -8.3 17.1
19:30 1017 30.03 846 24.98 -5.7 21.8 84 -8 17.7
19:35 1017 30.03 846 24.98 -6.1 21.1 87 -7.8 17.9
19:40 1017 30.03 846 24.98 -6.1 21 87 -8 17.6
19:45 1017 30.03 846 24.98 -6.2 20.9 87 -8.1 17.5
19:50 1017 30.03 847 25.01 -6.2 20.8 84 -8.4 16.8
19:55 1017 30.03 847 25.01 -6.2 20.9 81 -9 15.8
20:00 1017 30.03 847 25.01 -6 21.1 80 -9 15.8
20:05 1018 30.06 847 25.01 -6 21.2 79 -9.1 15.6
20:10 1018 30.06 847 25.01 -6.1 21.1 79 -9.2 15.5
20:15 1018 30.06 847 25.01 -6 21.2 74 -9.9 14.2
20:20 1018 30.06 847 25.01 -6 21.2 73 -10.2 13.7
20:25 1018 30.06 847 25.01 -6.1 21.1 73 -10.2 13.7
20:30 1018 30.06 847 25.01 -6.1 20.9 74 -10.1 13.8
20:35 1018 30.06 847 25.01 -6.2 20.8 75 -10 14
20:40 1018 30.06 847 25.01 -6.3 20.7 75 -10.1 13.8
20:45 1018 30.06 847 25.01 -6.3 20.7 74 -10.2 13.6
20:50 1018 30.06 847 25.01 -6.3 20.6 74 -10.2 13.7
20:55 1018 30.06 847 25.01 -6.4 20.5 74 -10.2 13.6
21:00 1018 30.06 847 25.01 -6.4 20.4 74 -10.4 13.4
21:05 1018 30.06 847 25.01 -6.6 20.2 74 -10.5 13.1
21:10 1018 30.06 847 25.01 -6.7 20 74 -10.5 13
21:15 1018 30.06 847 25.01 -6.7 20 74 -10.5 13.1
21:20 1018 30.06 847 25.01 -6.7 19.9 75 -10.5 13
21:25 1018 30.06 847 25.01 -6.8 19.8 75 -10.6 13
21:30 1018 30.06 847 25.01 -6.8 19.7 74 -10.6 12.8
21:35 1018 30.06 847 25.01 -6.9 19.7 75 -10.6 12.9
21:40 1018 30.06 847 25.01 -6.9 19.6 74 -10.7 12.8
21:45 1018 30.06 847 25.01 -6.9 19.6 75 -10.7 12.8
21:50 1018 30.06 847 25.01 -6.9 19.5 74 -10.8 12.6
21:55 1018 30.06 847 25.01 -6.9 19.6 73 -10.9 12.4
22:00 1018 30.06 847 25.01 -6.9 19.6 74 -10.8 12.6
22:05 1018 30.06 847 25.01 -6.9 19.6 73 -11 12.2
22:10 1018 30.06 847 25.01 -6.9 19.6 72 -11.2 11.9
22:15 1018 30.06 847 25.01 -6.9 19.6 72 -11.1 12
22:20 1018 30.06 848 25.04 -7 19.4 73 -11.1 12.1
22:25 1018 30.06 848 25.04 -7.1 19.3 73 -11.1 12
22:30 1018 30.06 848 25.04 -7.1 19.1 74 -11 12.3
22:35 1019 30.09 848 25.04 -7.2 19 74 -11 12.1
22:40 1019 30.09 848 25.04 -7.2 19 73 -11.4 11.5
22:45 1019 30.09 848 25.04 -7.2 19.1 72 -11.5 11.4
22:50 1019 30.09 848 25.04 -7.2 19 71 -11.6 11.1
22:55 1019 30.09 848 25.04 -7.2 19.1 72 -11.4 11.4
23:00 1019 30.09 848 25.04 -7.3 18.9 73 -11.2 11.8
23:05 1019 30.09 848 25.04 -7.4 18.8 72 -11.6 11.1
23:10 1019 30.09 848 25.04 -7.5 18.6 72 -11.7 10.9
23:15 1019 30.09 848 25.04 -7.3 18.8 73 -11.4 11.5
23:20 1019 30.09 848 25.04 -7.3 18.9 72 -11.5 11.4
23:25 1019 30.09 848 25.04 -7.2 19.1 72 -11.3 11.6
23:30 1019 30.09 848 25.04 -7.2 19.1 73 -11.3 11.6
23:35 1019 30.09 848 25.04 -7.2 19.1 74 -11 12.2
23:40 1019 30.09 848 25.04 -7.1 19.3 73 -11.1 12
23:45 1019 30.09 848 25.04 -7 19.4 74 -10.9 12.4
23:50 1019 30.09 848 25.04 -7.1 19.3 77 -10.5 13
23:55 1019 30.09 848 25.04 -7.2 19.1 77 -10.6 12.9
24:00 1019 30.09 848 25.04 -7.3 18.8 77 -10.6 12.9